createdAt,value
2023-04-19T04:49:43.785Z,8.43
2023-04-19T04:54:46.559Z,8.37
2023-04-19T04:59:49.356Z,10.37
2023-04-19T05:04:52.269Z,8.33
2023-04-19T05:09:55.188Z,10.13
2023-04-19T05:14:58.008Z,8.47
2023-04-19T05:20:00.925Z,11.50
2023-04-19T05:25:03.865Z,10.63
2023-04-19T05:30:07.483Z,11.73
2023-04-19T05:35:11.247Z,9.40
2023-04-19T05:40:14.062Z,9.70
2023-04-19T05:45:18.918Z,6.63
2023-04-19T05:50:21.732Z,10.43
2023-04-19T05:55:24.802Z,5.73
2023-04-19T06:00:28.525Z,4.10
2023-04-19T06:05:31.429Z,4.60
2023-04-19T06:10:49.046Z,5.47
2023-04-19T06:15:57.115Z,2.70
2023-04-19T06:20:59.892Z,4.27
2023-04-19T06:26:02.691Z,2.50
2023-04-19T06:31:05.844Z,3.60
2023-04-19T06:36:08.961Z,2.20
2023-04-19T06:41:11.888Z,2.27
2023-04-19T06:46:15.926Z,2.23
2023-04-19T06:51:18.796Z,3.03
2023-04-19T06:56:42.069Z,3.77
2023-04-19T07:01:45.745Z,3.23
2023-04-19T07:06:49.992Z,3.00
2023-04-19T07:11:52.962Z,9.07
2023-04-19T07:16:55.880Z,4.33
2023-04-19T07:21:58.653Z,5.40
2023-04-19T07:27:01.916Z,3.10
2023-04-19T07:32:05.101Z,2.53
2023-04-19T07:37:08.355Z,2.87
2023-04-19T07:42:11.120Z,2.23
2023-04-19T07:47:17.143Z,3.63
2023-04-19T07:52:22.281Z,5.20
2023-04-19T07:57:25.129Z,5.70
2023-04-19T08:02:28.224Z,2.30
2023-04-19T08:07:31.175Z,3.13
2023-04-19T08:12:39.300Z,3.37
2023-04-19T08:17:48.032Z,3.47
2023-04-19T08:22:50.911Z,2.63
2023-04-19T08:27:53.775Z,2.50
2023-04-19T08:32:57.388Z,4.07
2023-04-19T08:38:01.667Z,4.47
2023-04-19T08:43:08.419Z,3.83
2023-04-19T08:48:11.944Z,2.73
2023-04-19T08:53:24.956Z,5.40
2023-04-19T08:58:45.875Z,3.87
2023-04-19T09:04:03.294Z,4.07
2023-04-19T09:09:34.124Z,6.47
2023-04-19T09:14:57.780Z,4.83
2023-04-19T09:20:05.705Z,5.27
2023-04-19T09:30:24.175Z,2.90
2023-04-19T09:35:50.294Z,3.57
2023-04-19T09:40:53.254Z,3.80
2023-04-19T09:45:56.123Z,4.87
2023-04-19T09:51:04.962Z,5.63
2023-04-19T09:56:12.917Z,4.93
2023-04-19T10:01:17.412Z,9.73
2023-04-19T10:11:27.586Z,7.73
2023-04-19T10:16:31.616Z,7.93
2023-04-19T10:21:34.933Z,8.97
2023-04-19T10:27:12.876Z,9.73
2023-04-19T10:32:16.437Z,14.97
2023-04-19T10:37:24.382Z,11.70
2023-04-19T10:43:22.803Z,9.10
2023-04-19T10:48:33.337Z,12.03
2023-04-19T10:53:52.467Z,11.83
2023-04-19T10:59:01.616Z,10.40
2023-04-19T11:04:04.920Z,10.43
2023-04-19T11:09:10.752Z,12.80
2023-04-19T11:14:14.521Z,11.63
2023-04-19T11:19:20.781Z,11.30
2023-04-19T11:24:23.534Z,10.50
2023-04-19T11:29:26.420Z,13.10
2023-04-19T11:34:29.168Z,10.77
2023-04-19T11:39:31.917Z,12.37
2023-04-19T11:44:34.784Z,10.40
2023-04-19T11:49:37.646Z,12.17
2023-04-19T11:54:40.424Z,10.37
2023-04-19T12:00:05.903Z,11.20
2023-04-19T12:05:17.837Z,12.60
2023-04-19T12:10:20.959Z,14.63
2023-04-19T12:15:25.896Z,12.43
2023-04-19T12:20:31.558Z,12.17
2023-04-19T12:25:34.969Z,11.33
2023-04-19T12:30:37.991Z,13.37
2023-04-19T12:35:41.189Z,12.83
2023-04-19T12:40:43.934Z,13.07
2023-04-19T12:45:46.723Z,15.30
2023-04-19T12:50:49.445Z,15.73
2023-04-19T12:55:53.477Z,18.63
2023-04-19T13:00:56.555Z,14.37
2023-04-19T13:05:59.491Z,15.33
2023-04-19T13:11:07.456Z,17.43
2023-04-19T13:16:11.236Z,16.60
2023-04-19T13:21:14.666Z,19.53
2023-04-19T13:26:26.020Z,17.93
2023-04-19T13:31:29.050Z,16.67
2023-04-19T13:36:34.870Z,18.40
2023-04-19T13:41:37.697Z,17.07
2023-04-19T13:46:40.634Z,20.43
2023-04-19T13:51:50.288Z,18.30
2023-04-19T13:56:53.817Z,20.07
2023-04-19T14:01:56.891Z,23.03
2023-04-19T14:06:59.724Z,22.43
2023-04-19T14:12:04.442Z,22.90
2023-04-19T14:17:07.568Z,16.60
2023-04-19T14:22:10.387Z,19.07
2023-04-19T14:27:13.279Z,15.87
2023-04-19T14:32:25.931Z,17.03
2023-04-19T14:37:29.658Z,18.80
2023-04-19T14:42:35.319Z,17.03
2023-04-19T14:47:38.215Z,26.00
2023-04-19T14:52:41.536Z,18.83
2023-04-19T14:57:44.419Z,16.87
2023-04-19T15:02:47.294Z,18.10
2023-04-19T15:07:50.568Z,19.00
2023-04-19T15:12:53.313Z,13.17
2023-04-19T15:17:56.901Z,18.67
2023-04-19T15:23:00.077Z,14.90
2023-04-19T15:28:02.987Z,12.07
2023-04-19T15:33:05.841Z,16.27
2023-04-19T15:38:08.666Z,12.77
2023-04-19T15:43:11.495Z,14.10
2023-04-19T15:48:14.478Z,19.37
2023-04-19T15:53:17.494Z,17.43
2023-04-19T15:58:20.219Z,19.30
2023-04-19T16:03:23.167Z,17.67
2023-04-19T16:08:29.100Z,24.03
2023-04-19T16:13:34.088Z,19.50
2023-04-19T16:18:36.848Z,16.40
2023-04-19T16:23:43.295Z,13.27
2023-04-19T16:28:48.974Z,18.67
2023-04-19T16:33:51.761Z,17.97
2023-04-19T16:38:54.556Z,13.87
2023-04-19T16:43:57.371Z,19.43
2023-04-19T16:49:01.032Z,18.07
2023-04-19T16:54:03.862Z,22.77
2023-04-19T16:59:06.644Z,16.77
2023-04-19T17:04:09.599Z,23.20
2023-04-19T17:09:12.601Z,20.57
2023-04-19T17:14:15.904Z,20.57
2023-04-19T17:19:18.975Z,22.33
2023-04-19T17:24:22.924Z,21.30
2023-04-19T17:29:25.873Z,21.40
2023-04-19T17:34:28.702Z,20.93
2023-04-19T17:39:31.579Z,22.47
2023-04-19T17:44:34.346Z,24.97
2023-04-19T17:49:37.180Z,21.20
2023-04-19T17:54:41.556Z,20.30
2023-04-19T17:59:44.290Z,19.93
2023-04-19T18:04:47.903Z,27.93
2023-04-19T18:09:50.750Z,25.03
2023-04-19T18:14:53.675Z,25.57
2023-04-19T18:19:59.044Z,27.33
2023-04-19T18:25:01.861Z,33.50
2023-04-19T18:30:05.708Z,27.30
2023-04-19T18:35:10.105Z,26.40
2023-04-19T18:40:13.454Z,26.23
2023-04-19T18:45:16.903Z,26.10
2023-04-19T18:50:19.728Z,30.07
2023-04-19T18:55:22.827Z,27.47
2023-04-19T19:00:25.742Z,28.97
2023-04-19T19:05:28.809Z,27.97
2023-04-19T19:10:48.510Z,25.47
2023-04-19T19:15:54.505Z,25.47
2023-04-19T19:21:00.510Z,25.27
2023-04-19T19:26:04.012Z,26.00
2023-04-19T19:31:06.978Z,32.67
2023-04-19T19:36:09.766Z,28.60
2023-04-19T19:46:18.529Z,26.33
2023-04-19T19:51:52.345Z,36.27
2023-04-19T19:57:08.200Z,32.73
2023-04-19T20:02:07.850Z,40.17
2023-04-19T20:07:25.880Z,25.47
2023-04-19T20:12:40.977Z,33.93
2023-04-19T20:17:44.208Z,34.93
2023-04-19T20:22:47.902Z,30.53
2023-04-19T20:27:50.657Z,29.53
2023-04-19T20:32:53.768Z,38.27
2023-04-19T20:38:02.650Z,28.07
2023-04-19T20:43:08.702Z,31.63
2023-04-19T20:48:13.098Z,29.80
2023-04-19T20:53:16.020Z,34.83
2023-04-19T20:58:18.867Z,27.47
2023-04-19T21:03:23.222Z,34.37
2023-04-19T21:08:26.022Z,37.07
2023-04-19T21:13:28.814Z,34.87
2023-04-19T21:18:31.780Z,29.70
2023-04-19T21:23:34.848Z,37.03
2023-04-19T21:28:37.714Z,32.63
2023-04-19T21:33:40.626Z,27.93
2023-04-19T21:38:43.523Z,35.27
2023-04-19T21:43:46.349Z,27.60
2023-04-19T21:48:49.275Z,29.13
2023-04-19T21:53:52.133Z,27.67
2023-04-19T21:58:55.234Z,32.83
2023-04-19T22:03:58.883Z,33.47
2023-04-19T22:09:02.929Z,33.27
2023-04-19T22:14:06.280Z,28.00
2023-04-19T22:19:09.119Z,31.20
2023-04-19T22:24:11.863Z,34.97
2023-04-19T22:29:14.742Z,28.67
2023-04-19T22:34:17.698Z,30.87
2023-04-19T22:39:20.741Z,36.17
2023-04-19T22:44:23.539Z,33.07
2023-04-19T22:49:26.428Z,36.33
2023-04-19T22:54:29.204Z,30.90
2023-04-19T22:59:31.980Z,27.97
2023-04-19T23:04:41.586Z,34.30
2023-04-19T23:09:44.395Z,30.90
2023-04-19T23:14:48.483Z,39.67
2023-04-19T23:19:51.262Z,34.50
2023-04-19T23:24:54.086Z,34.47
2023-04-19T23:29:56.847Z,29.90
2023-04-19T23:34:59.752Z,29.07
2023-04-19T23:40:03.507Z,34.57
2023-04-19T23:45:07.069Z,43.23
